KMWA/MWA METAR and TAF weather

Enter ICAO airport designator
Station Type Date Time Source
KMWA METAR 2021/04/12 03:15 UTC NOAA

KMWA 120315Z AUTO 00000KT 10SM CLR 10/05 A2966 RMK AO2 T01010053


Station Type Date Time Source
KMWA Decoded METAR 2021/04/12 03:15 UTC NOAA

Marion, Williamson County Regional Airport, IL, United States (KMWA) 37-45-01N 089-00-04W
Apr 11, 2021 - 11:15 PM EDT / 2021.04.12 0315 UTC
Wind: Calm:0
Visibility: 10 mile(s):0
Sky conditions: clear
Temperature: 50.2 F (10.1 C)
Dew Point: 41.5 F (5.3 C)
Relative Humidity: 72%
Pressure (altimeter): 29.66 in. Hg (1004 hPa)
ob: KMWA 120315Z AUTO 00000KT 10SM CLR 10/05 A2966 RMK AO2 T01010053
cycle: 3

Station Type Date Time Source
KMWA TAF UTC NOAA

Error!

Example: see airport list